Chad Pregracke — WDI9674 — position and weather

sailwx.info

Track history (hours):
 
Tides and Currents Weather Stations Pressure Air Temp Water Temp Dewpoint Dewpoint Depression Visibility Wind Speed Wind Dir Waves Ship Positions

Chad Pregracke

Owner: Marquette Transportation Company, LLC, Paducah, KY. More information available from US FCC via Universal Licensing System and Coast Guard Vessel Documentation Center.

Last reported at 2017-Sep-17 09:32 UTC. Time now 2017-Sep-24 08:43 UTC.
Position N 32°44' W 091°05'.

Length 55 m; draft 3.7 m.

Type: Ship (hazmat cat B). MMSI: 367751050.

Date/timePositionNaut miles runAvg speedWind from/ knotsBaromVisibWave heightAir tempDewpointWater temp
2017-Sep-17 09:32N 32°44' W 091°05'0 5.7
2017-Sep-17 09:28N 32°44' W 091°04'0 0.3
2017-Sep-17 08:56N 32°44' W 091°04'0 0.0
2017-Sep-17 08:30N 32°44' W 091°04'0 0.0
2017-Sep-17 08:00N 32°44' W 091°04'0 0.0
2017-Sep-17 07:24N 32°44' W 091°04'0 0.0
2017-Sep-17 07:00N 32°44' W 091°04'0 0.0
2017-Sep-17 06:30N 32°44' W 091°04'0 0.0
2017-Sep-17 06:00N 32°44' W 091°04'0 0.0
2017-Sep-17 05:30N 32°44' W 091°04'0 0.0
2017-Sep-17 05:00N 32°44' W 091°04'0 0.0
2017-Sep-17 04:30N 32°44' W 091°04'0 0.0
2017-Sep-17 03:52N 32°44' W 091°04'0 0.0
2017-Sep-17 03:30N 32°44' W 091°04'0 0.0
2017-Sep-17 03:00N 32°44' W 091°04'0 0.0
2017-Sep-17 02:30N 32°44' W 091°04'0 0.0
2017-Sep-17 01:51N 32°44' W 091°04'5 1.7
2017-Sep-16 22:49N 32°40' W 091°08'2 4.1
2017-Sep-16 22:17N 32°38' W 091°09'1 4.6
2017-Sep-16 22:00N 32°37' W 091°09'2 4.6
2017-Sep-16 21:30N 32°35' W 091°08'2 4.4
2017-Sep-16 21:00N 32°33' W 091°06'3 5.0
2017-Sep-16 20:25N 32°30' W 091°07'2 5.3
2017-Sep-16 20:00N 32°28' W 091°06'3 5.3
2017-Sep-16 19:30N 32°27' W 091°04'3 5.2
2017-Sep-16 19:00N 32°26' W 091°01'2 4.4
2017-Sep-16 18:30N 32°24' W 090°59'2 4.1
2017-Sep-16 18:00N 32°22' W 091°00'2 3.9
2017-Sep-16 17:30N 32°21' W 090°58'3 5.2
2017-Sep-16 17:00N 32°21' W 090°55'2 3.9
2017-Sep-16 16:30N 32°19' W 090°54'2 3.2
2017-Sep-16 16:00N 32°18' W 090°55'1 1.7
2017-Sep-16 15:30N 32°17' W 090°56'2 3.3
2017-Sep-16 15:00N 32°16' W 090°58'2 4.1
2017-Sep-16 14:30N 32°15' W 090°59'0 0.4
2017-Sep-16 14:00N 32°14' W 090°59'2 4.9
2017-Sep-16 13:30N 32°12' W 090°59'2 4.7
2017-Sep-16 13:00N 32°10' W 091°00'2 4.9
2017-Sep-16 12:30N 32°07' W 091°01'2 4.5
2017-Sep-16 12:00N 32°08' W 091°04'2 4.7
2017-Sep-16 11:30N 32°08' W 091°06'5 4.1
2017-Sep-16 10:21N 32°04' W 091°03'2 5.5
2017-Sep-16 09:58N 32°02' W 091°04'  
2017-Sep-12 12:28N 30°03' W 090°36'  
2017-Sep-10 07:21N 31°57' W 091°11'3 8.6
2017-Sep-10 07:00N 31°59' W 091°09'5 9.2
2017-Sep-10 06:30N 32°01' W 091°04'4 8.7
2017-Sep-10 06:00N 32°06' W 091°06'2 4.6
2017-Sep-10 05:30N 32°08' W 091°05'4 7.8
2017-Sep-10 05:00N 32°09' W 091°00'510.3
2017-Sep-10 04:30N 32°14' W 090°59'510.0
2017-Sep-10 04:00N 32°18' W 090°55'3 5.8
2017-Sep-10 03:30N 32°21' W 090°56'4 8.1
2017-Sep-10 03:00N 32°22' W 091°00'4 7.6
2017-Sep-10 02:30N 32°26' W 091°02'5 9.7
2017-Sep-10 02:00N 32°28' W 091°07'5 9.6
2017-Sep-10 01:30N 32°33' W 091°06'5 9.7
2017-Sep-10 01:00N 32°37' W 091°09'  
Track history (hours):
 
Tides and Currents Weather Stations Pressure Air Temp Water Temp Dewpoint Dewpoint Depression Visibility Wind Speed Wind Dir Waves Ship Positions

Chad Pregracke

Owner: Marquette Transportation Company, LLC, Paducah, KY. More information available from US FCC via Universal Licensing System and Coast Guard Vessel Documentation Center.

Last reported at 2017-Sep-17 09:32 UTC. Time now 2017-Sep-24 08:43 UTC.
Position N 32°44' W 091°05'.

Length 55 m; draft 3.7 m.

Type: Ship (hazmat cat B). MMSI: 367751050.

Date/timePositionNaut miles runAvg speedWind from/ knotsBaromVisibWave heightAir tempDewpointWater temp
2017-Sep-17 09:32N 32°44' W 091°05'0 5.7
2017-Sep-17 09:28N 32°44' W 091°04'0 0.3
2017-Sep-17 08:56N 32°44' W 091°04'0 0.0
2017-Sep-17 08:30N 32°44' W 091°04'0 0.0
2017-Sep-17 08:00N 32°44' W 091°04'0 0.0
2017-Sep-17 07:24N 32°44' W 091°04'0 0.0
2017-Sep-17 07:00N 32°44' W 091°04'0 0.0
2017-Sep-17 06:30N 32°44' W 091°04'0 0.0
2017-Sep-17 06:00N 32°44' W 091°04'0 0.0
2017-Sep-17 05:30N 32°44' W 091°04'0 0.0
2017-Sep-17 05:00N 32°44' W 091°04'0 0.0
2017-Sep-17 04:30N 32°44' W 091°04'0 0.0
2017-Sep-17 03:52N 32°44' W 091°04'0 0.0
2017-Sep-17 03:30N 32°44' W 091°04'0 0.0
2017-Sep-17 03:00N 32°44' W 091°04'0 0.0
2017-Sep-17 02:30N 32°44' W 091°04'0 0.0
2017-Sep-17 01:51N 32°44' W 091°04'5 1.7
2017-Sep-16 22:49N 32°40' W 091°08'2 4.1
2017-Sep-16 22:17N 32°38' W 091°09'1 4.6
2017-Sep-16 22:00N 32°37' W 091°09'2 4.6
2017-Sep-16 21:30N 32°35' W 091°08'2 4.4
2017-Sep-16 21:00N 32°33' W 091°06'3 5.0
2017-Sep-16 20:25N 32°30' W 091°07'2 5.3
2017-Sep-16 20:00N 32°28' W 091°06'3 5.3
2017-Sep-16 19:30N 32°27' W 091°04'3 5.2
2017-Sep-16 19:00N 32°26' W 091°01'2 4.4
2017-Sep-16 18:30N 32°24' W 090°59'2 4.1
2017-Sep-16 18:00N 32°22' W 091°00'2 3.9
2017-Sep-16 17:30N 32°21' W 090°58'3 5.2
2017-Sep-16 17:00N 32°21' W 090°55'2 3.9
2017-Sep-16 16:30N 32°19' W 090°54'2 3.2
2017-Sep-16 16:00N 32°18' W 090°55'1 1.7
2017-Sep-16 15:30N 32°17' W 090°56'2 3.3
2017-Sep-16 15:00N 32°16' W 090°58'2 4.1
2017-Sep-16 14:30N 32°15' W 090°59'0 0.4
2017-Sep-16 14:00N 32°14' W 090°59'2 4.9
2017-Sep-16 13:30N 32°12' W 090°59'2 4.7
2017-Sep-16 13:00N 32°10' W 091°00'2 4.9
2017-Sep-16 12:30N 32°07' W 091°01'2 4.5
2017-Sep-16 12:00N 32°08' W 091°04'2 4.7
2017-Sep-16 11:30N 32°08' W 091°06'5 4.1
2017-Sep-16 10:21N 32°04' W 091°03'2 5.5
2017-Sep-16 09:58N 32°02' W 091°04'  
2017-Sep-12 12:28N 30°03' W 090°36'  
2017-Sep-10 07:21N 31°57' W 091°11'3 8.6
2017-Sep-10 07:00N 31°59' W 091°09'5 9.2
2017-Sep-10 06:30N 32°01' W 091°04'4 8.7
2017-Sep-10 06:00N 32°06' W 091°06'2 4.6
2017-Sep-10 05:30N 32°08' W 091°05'4 7.8
2017-Sep-10 05:00N 32°09' W 091°00'510.3
2017-Sep-10 04:30N 32°14' W 090°59'510.0
2017-Sep-10 04:00N 32°18' W 090°55'3 5.8
2017-Sep-10 03:30N 32°21' W 090°56'4 8.1
2017-Sep-10 03:00N 32°22' W 091°00'4 7.6
2017-Sep-10 02:30N 32°26' W 091°02'5 9.7
2017-Sep-10 02:00N 32°28' W 091°07'5 9.6
2017-Sep-10 01:30N 32°33' W 091°06'5 9.7
2017-Sep-10 01:00N 32°37' W 091°09'  

Dump ship's entire track history